Time;durP1;ratioP1;P1;durP2;ratioP2;P2;SDS_P1;SDS_P2;PMS_P1;PMS_P2;Temp;Humidity;BMP_temperature;BMP_pressure;BME280_temperature;BME280_humidity;BME280_pressure;Samples;Min_cycle;Max_cycle;Signal;HPM_P1;HPM_P2
2022/07/08 00:02:11;;;;;;;0.30;0.30;;;;;;;13.52;88.71;101425.16;5073189;28;20202;-73
2022/07/08 00:04:37;;;;;;;0.20;0.10;;;;;;;13.48;88.83;101424.97;5072868;28;20186;-73
2022/07/08 00:07:03;;;;;;;0.67;0.67;;;;;;;13.46;89.03;101429.13;5072954;28;20299;-73
2022/07/08 00:09:28;;;;;;;3.33;3.13;;;;;;;13.39;88.83;101422.09;5071287;28;20227;-73
2022/07/08 00:11:55;;;;;;;2.77;1.00;;;;;;;13.33;88.88;101422.53;5072833;28;20223;-72
2022/07/08 00:14:20;;;;;;;15.20;0.93;;;;;;;13.29;89.46;101419.56;5071244;28;20179;-72
2022/07/08 00:16:46;;;;;;;1.00;1.00;;;;;;;13.26;89.71;101427.59;5071007;28;20591;-73
2022/07/08 00:19:16;;;;;;;3.50;0.50;;;;;;;13.21;89.84;101422.22;5072567;28;20201;-73
2022/07/08 00:21:43;;;;;;;7.17;0.77;;;;;;;13.16;89.89;101430.50;5071385;28;20557;-72
2022/07/08 00:24:10;;;;;;;1.47;0.70;;;;;;;13.15;90.06;101431.63;5071282;28;20178;-73
2022/07/08 00:26:35;;;;;;;0.10;0.00;;;;;;;13.11;89.76;101434.97;5072296;28;20267;-73
2022/07/08 00:29:01;;;;;;;0.10;0.10;;;;;;;13.10;89.64;101440.78;5072200;28;20213;-72
2022/07/08 00:31:26;;;;;;;4.37;0.70;;;;;;;13.08;90.32;101435.59;5072307;28;20206;-73
2022/07/08 00:33:52;;;;;;;0.20;0.20;;;;;;;13.07;89.78;101447.69;5072342;28;20267;-73
2022/07/08 00:36:17;;;;;;;1.27;0.90;;;;;;;13.08;89.99;101454.81;5072427;28;20312;-73
2022/07/08 00:38:42;;;;;;;0.43;0.30;;;;;;;13.07;89.93;101446.88;5071706;28;20178;-73
2022/07/08 00:41:07;;;;;;;19.00;1.13;;;;;;;13.05;89.66;101452.66;5068810;28;20186;-73
2022/07/08 00:43:36;;;;;;;1.70;1.50;;;;;;;13.03;89.85;101465.06;5072063;28;20214;-73
2022/07/08 00:46:01;;;;;;;0.27;0.27;;;;;;;13.01;89.52;101459.84;5072294;28;20207;-72
2022/07/08 00:48:27;;;;;;;0.33;0.33;;;;;;;13.00;89.68;101462.91;5072093;28;20244;-73
2022/07/08 00:50:52;;;;;;;0.00;0.00;;;;;;;12.99;90.24;101472.25;5072095;28;20198;-73
2022/07/08 00:53:18;;;;;;;0.00;0.00;;;;;;;12.97;90.10;101475.31;5071921;28;20528;-73
2022/07/08 00:55:44;;;;;;;0.40;0.40;;;;;;;12.94;89.78;101473.16;5071939;28;20171;-73
2022/07/08 00:58:11;;;;;;;1.03;0.40;;;;;;;12.94;90.29;101483.34;5071338;28;20174;-75
2022/07/08 01:00:36;;;;;;;0.00;0.00;;;;;;;12.91;90.00;101479.28;5072780;28;20175;-73
2022/07/08 01:03:02;;;;;;;0.10;0.10;;;;;;;12.91;89.99;101484.75;5078719;28;20308;-73
2022/07/08 01:05:27;;;;;;;0.40;0.40;;;;;;;12.90;90.46;101485.06;5076673;28;20174;-72
2022/07/08 01:07:53;;;;;;;0.37;0.37;;;;;;;12.86;90.36;101493.06;5071832;28;20178;-73
2022/07/08 01:10:18;;;;;;;0.00;0.00;;;;;;;12.85;90.71;101487.88;5072027;28;20241;-73
2022/07/08 01:12:43;;;;;;;0.10;0.10;;;;;;;12.80;91.01;101491.53;5071904;28;20198;-73
2022/07/08 01:15:09;;;;;;;0.33;0.20;;;;;;;12.77;90.74;101495.69;5071409;28;20258;-74
2022/07/08 01:17:44;;;;;;;0.10;0.10;;;;;;;12.71;91.71;101494.13;5071728;28;20171;-73
2022/07/08 01:20:13;;;;;;;6.90;0.33;;;;;;;12.68;91.94;101494.72;5069942;28;20659;-73
2022/07/08 01:22:39;;;;;;;0.10;0.10;;;;;;;12.63;91.56;101483.84;5070007;28;20248;-73
2022/07/08 01:25:05;;;;;;;0.33;0.33;;;;;;;12.59;92.04;101493.81;5071643;28;20179;-73
2022/07/08 01:27:31;;;;;;;1.13;1.03;;;;;;;12.55;91.95;101483.72;5071349;28;20174;-73
2022/07/08 01:29:57;;;;;;;0.00;0.00;;;;;;;12.52;92.83;101488.69;5071326;28;20186;-73
2022/07/08 01:32:22;;;;;;;0.60;0.60;;;;;;;12.45;93.38;101491.00;5071341;28;20634;-73
2022/07/08 01:34:48;;;;;;;0.47;0.47;;;;;;;12.40;94.00;101488.31;5071354;28;20174;-73
2022/07/08 01:37:13;;;;;;;0.00;0.00;;;;;;;12.35;94.84;101485.69;5071157;28;20182;-73
2022/07/08 01:39:38;;;;;;;0.20;0.20;;;;;;;12.29;94.97;101497.81;5071002;28;20604;-73
2022/07/08 01:42:04;;;;;;;0.50;0.50;;;;;;;12.25;95.84;101485.00;5071158;28;20185;-73
2022/07/08 01:44:29;;;;;;;0.00;0.00;;;;;;;12.22;96.64;101491.91;5071230;28;20228;-73
2022/07/08 01:46:55;;;;;;;0.40;0.20;;;;;;;12.17;97.03;101494.72;5070927;28;20179;-73
2022/07/08 01:49:20;;;;;;;7.23;1.70;;;;;;;12.12;97.36;101495.59;5070700;28;20193;-73
2022/07/08 01:51:46;;;;;;;0.50;0.40;;;;;;;12.13;98.18;101494.47;5070805;28;20186;-73
2022/07/08 01:54:11;;;;;;;8.50;1.40;;;;;;;12.09;98.45;101496.19;5071251;28;20266;-73
2022/07/08 01:56:36;;;;;;;0.10;0.10;;;;;;;12.09;98.50;101495.38;5070941;28;20541;-73
2022/07/08 01:59:02;;;;;;;4.87;1.70;;;;;;;12.08;97.78;101496.50;5070743;28;20198;-72
2022/07/08 02:01:27;;;;;;;0.10;0.10;;;;;;;12.10;97.63;101503.28;5069487;28;20693;-73
2022/07/08 02:03:53;;;;;;;1.83;0.90;;;;;;;12.13;97.44;101496.41;5070598;28;20535;-73
2022/07/08 02:06:18;;;;;;;0.37;0.37;;;;;;;12.16;97.25;101490.34;5070726;28;20167;-73
2022/07/08 02:08:43;;;;;;;4.23;0.87;;;;;;;12.19;97.41;101497.97;5070861;28;20538;-73
2022/07/08 02:13:53;;;;;;;0.20;0.20;;;;;;;12.31;96.58;101500.28;5070821;28;20228;-72
2022/07/08 02:16:18;;;;;;;0.43;0.37;;;;;;;12.34;95.88;101508.72;5069612;28;20625;-73
2022/07/08 02:18:43;;;;;;;10.60;2.00;;;;;;;12.39;95.48;101508.63;5069304;28;20671;-72
2022/07/08 02:21:09;;;;;;;0.00;0.00;;;;;;;12.43;95.24;101511.56;5069398;28;20171;-73
2022/07/08 02:23:34;;;;;;;6.23;0.93;;;;;;;12.46;95.22;101516.50;5070665;28;20206;-75
2022/07/08 02:25:59;;;;;;;0.00;0.00;;;;;;;12.47;95.12;101515.38;5070863;28;20174;-73
2022/07/08 02:28:25;;;;;;;11.50;1.50;;;;;;;12.46;94.83;101514.56;5070185;28;20615;-73
2022/07/08 02:30:50;;;;;;;0.00;0.00;;;;;;;12.47;94.79;101516.19;5070808;28;20174;-73
2022/07/08 02:33:16;;;;;;;0.53;0.53;;;;;;;12.44;94.30;101516.78;5072794;28;20215;-73
2022/07/08 02:35:41;;;;;;;0.00;0.00;;;;;;;12.40;94.55;101512.19;5074794;28;20768;-73
2022/07/08 02:38:06;;;;;;;5.40;1.33;;;;;;;12.31;94.72;101517.53;5073025;28;20189;-72
2022/07/08 02:40:32;;;;;;;0.03;0.00;;;;;;;12.28;95.53;101514.53;5074707;28;20235;-73
2022/07/08 02:42:57;;;;;;;0.00;0.00;;;;;;;12.23;95.78;101520.13;5074628;28;20190;-73
2022/07/08 02:45:22;;;;;;;0.97;0.70;;;;;;;12.21;96.03;101523.16;5074538;28;20180;-72
2022/07/08 02:47:48;;;;;;;0.40;0.40;;;;;;;12.17;95.95;101524.84;5074282;28;20206;-73
2022/07/08 02:50:13;;;;;;;2.57;0.60;;;;;;;12.15;96.17;101529.78;5072767;28;20193;-73
2022/07/08 02:52:38;;;;;;;0.00;0.00;;;;;;;12.15;96.51;101527.91;5073505;28;20692;-73
2022/07/08 02:55:04;;;;;;;2.00;0.30;;;;;;;12.12;96.66;101527.66;5074635;28;20448;-72
2022/07/08 02:57:30;;;;;;;0.00;0.00;;;;;;;12.09;96.54;101526.31;5072863;28;20204;-74
2022/07/08 02:59:55;;;;;;;0.73;0.73;;;;;;;12.08;96.66;101532.09;5074057;28;20285;-73
2022/07/08 03:02:21;;;;;;;0.27;0.27;;;;;;;12.07;96.65;101531.28;5074508;28;20818;-73
2022/07/08 03:04:46;;;;;;;0.20;0.20;;;;;;;12.07;96.40;101533.22;5074225;28;20175;-73
2022/07/08 03:07:11;;;;;;;0.07;0.07;;;;;;;12.09;96.46;101533.72;5072614;28;20174;-73
2022/07/08 03:09:37;;;;;;;0.07;0.07;;;;;;;12.09;96.66;101541.94;5072319;28;20544;-73
2022/07/08 03:12:02;;;;;;;0.93;0.27;;;;;;;12.07;96.85;101538.69;5074084;28;20178;-73
2022/07/08 03:14:27;;;;;;;1.83;0.93;;;;;;;12.05;96.87;101541.72;5071525;28;20928;-73
2022/07/08 03:16:53;;;;;;;12.20;1.07;;;;;;;12.03;96.52;101545.88;5073725;28;20253;-73
2022/07/08 03:19:19;;;;;;;0.47;0.47;;;;;;;12.03;96.57;101537.66;5073377;28;20171;-72
2022/07/08 03:21:44;;;;;;;0.20;0.20;;;;;;;12.02;96.57;101536.03;5073861;28;20177;-72
2022/07/08 03:24:09;;;;;;;0.00;0.00;;;;;;;12.03;96.43;101535.72;5073738;28;20202;-73
2022/07/08 03:26:35;;;;;;;0.10;0.10;;;;;;;12.04;95.88;101539.28;5072193;28;20174;-73
2022/07/08 03:29:00;;;;;;;1.70;0.27;;;;;;;12.05;95.83;101541.72;5073259;28;20297;-72
2022/07/08 03:31:26;;;;;;;0.00;0.00;;;;;;;12.09;95.83;101552.91;5073603;28;20654;-73
2022/07/08 03:33:51;;;;;;;1.50;0.13;;;;;;;12.09;96.22;101550.97;5073568;28;20266;-73
2022/07/08 03:36:16;;;;;;;0.40;0.40;;;;;;;12.12;96.50;101549.56;5073851;28;20626;-73
2022/07/08 03:38:42;;;;;;;5.73;0.73;;;;;;;12.14;96.31;101556.38;5073208;28;20220;-73
2022/07/08 03:41:19;;;;;;;0.10;0.10;;;;;;;12.11;96.42;101559.72;5073462;28;20185;-72
2022/07/08 03:43:45;;;;;;;0.53;0.53;;;;;;;12.12;96.61;101555.84;5073377;28;20206;-73
2022/07/08 03:46:10;;;;;;;0.00;0.00;;;;;;;12.16;96.75;101559.66;5073614;28;20174;-73
2022/07/08 03:48:36;;;;;;;0.00;0.00;;;;;;;12.20;96.60;101563.44;5071139;28;20182;-73
2022/07/08 03:51:01;;;;;;;0.00;0.00;;;;;;;12.24;96.87;101573.81;5073103;28;20642;-74
2022/07/08 03:53:26;;;;;;;11.03;0.97;;;;;;;12.25;96.58;101578.16;5073164;28;20175;-73
2022/07/08 03:55:54;;;;;;;5.40;0.20;;;;;;;12.28;96.50;101575.66;5073274;28;20634;-73
2022/07/08 03:58:19;;;;;;;0.83;0.67;;;;;;;12.30;96.24;101576.19;5072596;28;20536;-73
2022/07/08 04:00:44;;;;;;;0.00;0.00;;;;;;;12.29;95.85;101582.75;5073258;28;20186;-73
2022/07/08 04:03:10;;;;;;;12.20;0.50;;;;;;;12.29;95.77;101584.69;5073095;28;20332;-72
2022/07/08 04:05:35;;;;;;;0.00;0.00;;;;;;;12.30;96.77;101584.41;5073107;28;20178;-73
2022/07/08 04:08:00;;;;;;;0.10;0.10;;;;;;;12.31;96.43;101590.72;5072439;28;20265;-73
2022/07/08 04:10:26;;;;;;;0.63;0.27;;;;;;;12.35;96.67;101597.22;5072939;28;20179;-73
2022/07/08 04:12:51;;;;;;;0.20;0.20;;;;;;;12.37;96.68;101598.56;5072970;28;20181;-74
2022/07/08 04:15:17;;;;;;;0.40;0.40;;;;;;;12.44;95.79;101606.41;5071980;28;20190;-73
2022/07/08 04:17:42;;;;;;;0.33;0.30;;;;;;;12.46;95.29;101610.50;5072531;28;20175;-73
2022/07/08 04:20:08;;;;;;;1.50;1.33;;;;;;;12.51;95.46;101615.09;5072400;28;20178;-72
2022/07/08 04:22:33;;;;;;;30.13;1.77;;;;;;;12.53;95.70;101615.59;5072619;28;20698;-72
2022/07/08 04:24:59;;;;;;;2.50;0.73;;;;;;;12.57;95.49;101618.56;5072986;28;20185;-72
2022/07/08 04:27:24;;;;;;;0.00;0.00;;;;;;;12.63;94.97;101628.34;5072544;28;20217;-72
2022/07/08 04:29:50;;;;;;;2.33;0.67;;;;;;;12.64;95.24;101625.31;5072522;28;20248;-72
2022/07/08 04:32:15;;;;;;;8.50;0.57;;;;;;;12.64;94.89;101617.09;5072735;28;20630;-72
2022/07/08 04:34:40;;;;;;;4.70;0.47;;;;;;;12.67;94.61;101630.19;5072592;28;20182;-74
2022/07/08 04:37:06;;;;;;;0.30;0.30;;;;;;;12.66;94.76;101619.53;5072199;28;20730;-72
2022/07/08 04:39:31;;;;;;;17.97;1.80;;;;;;;12.65;94.21;101626.13;5070788;28;20182;-73
2022/07/08 04:41:56;;;;;;;4.47;1.27;;;;;;;12.69;93.60;101616.19;5072331;28;20667;-73
2022/07/08 04:44:22;;;;;;;1.20;1.10;;;;;;;12.73;93.08;101619.97;5072328;28;20402;-78
2022/07/08 04:46:47;;;;;;;7.83;1.60;;;;;;;12.77;93.15;101623.75;5070778;28;20178;-73
2022/07/08 04:49:13;;;;;;;0.00;0.00;;;;;;;12.81;92.35;101624.78;5071885;28;20190;-73
2022/07/08 04:51:38;;;;;;;0.93;0.93;;;;;;;12.85;92.10;101625.81;5072060;28;20190;-73
2022/07/08 04:54:03;;;;;;;1.70;1.60;;;;;;;12.91;92.26;101626.56;5071989;28;20178;-73
2022/07/08 04:56:29;;;;;;;0.07;0.07;;;;;;;12.95;91.60;101631.16;5071683;28;20220;-73
2022/07/08 04:58:54;;;;;;;4.43;0.60;;;;;;;12.95;91.94;101631.16;5071426;28;20622;-73
2022/07/08 05:01:19;;;;;;;0.20;0.20;;;;;;;13.00;92.23;101636.56;5070478;28;20214;-73
2022/07/08 05:03:45;;;;;;;0.20;0.20;;;;;;;13.01;92.62;101632.69;5071865;28;20305;-73
2022/07/08 05:06:10;;;;;;;0.23;0.17;;;;;;;13.06;92.11;101631.81;5071886;28;20289;-73
2022/07/08 05:08:35;;;;;;;0.10;0.10;;;;;;;13.07;92.00;101636.19;5071122;28;20228;-73
2022/07/08 05:11:01;;;;;;;0.33;0.20;;;;;;;13.09;92.07;101642.19;5071677;28;20657;-73
2022/07/08 05:13:26;;;;;;;0.20;0.20;;;;;;;13.14;91.96;101636.59;5071927;28;20553;-73
2022/07/08 05:15:51;;;;;;;5.87;1.07;;;;;;;13.20;92.36;101642.88;5070671;28;20224;-74
2022/07/08 05:18:17;;;;;;;5.10;0.83;;;;;;;13.27;92.26;101644.09;5070966;28;20181;-75
2022/07/08 05:20:42;;;;;;;0.13;0.10;;;;;;;13.28;91.54;101645.75;5071722;28;20688;-72
2022/07/08 05:23:08;;;;;;;0.67;0.27;;;;;;;13.33;90.85;101644.84;5066788;28;20293;-73
2022/07/08 05:25:33;;;;;;;5.17;2.97;;;;;;;13.37;89.84;101654.13;5071283;28;20619;-72
2022/07/08 05:27:59;;;;;;;0.83;0.67;;;;;;;13.44;89.04;101653.72;5070749;28;20178;-72
2022/07/08 05:30:24;;;;;;;0.00;0.00;;;;;;;13.47;87.78;101662.19;5071605;28;20174;-73
2022/07/08 05:32:49;;;;;;;2.57;2.47;;;;;;;13.50;86.99;101653.34;5069186;28;20692;-73
2022/07/08 05:35:15;;;;;;;0.10;0.10;;;;;;;13.56;87.02;101649.38;5069324;28;20293;-73
2022/07/08 05:37:40;;;;;;;10.20;0.50;;;;;;;13.61;86.75;101649.31;5069928;28;20540;-73
2022/07/08 05:40:07;;;;;;;0.00;0.00;;;;;;;13.64;85.95;101656.13;5070584;28;20185;-73
2022/07/08 05:42:33;;;;;;;6.50;0.33;;;;;;;13.63;85.45;101651.75;5070222;28;20630;-73
2022/07/08 05:44:59;;;;;;;5.30;1.13;;;;;;;13.62;85.04;101659.16;5071293;28;20175;-73
2022/07/08 05:47:24;;;;;;;0.50;0.27;;;;;;;13.64;85.33;101664.34;5069749;28;20170;-73
2022/07/08 05:49:49;;;;;;;0.37;0.37;;;;;;;13.62;84.34;101666.59;5070810;28;20235;-74
2022/07/08 05:52:15;;;;;;;0.10;0.03;;;;;;;13.66;85.01;101664.88;5070994;28;20690;-73
2022/07/08 05:54:45;;;;;;;1.80;1.70;;;;;;;13.73;85.63;101667.19;5070752;28;20174;-72
2022/07/08 05:57:10;;;;;;;0.20;0.20;;;;;;;13.69;84.13;101667.81;5070412;28;20170;-75
2022/07/08 05:59:35;;;;;;;0.00;0.00;;;;;;;13.68;84.39;101670.88;5070233;28;20228;-73
2022/07/08 06:02:01;;;;;;;3.10;1.17;;;;;;;13.73;84.89;101669.94;5070354;28;20247;-73
2022/07/08 06:04:27;;;;;;;3.27;0.40;;;;;;;13.77;84.99;101663.56;5070162;28;20490;-73
2022/07/08 06:06:52;;;;;;;0.00;0.00;;;;;;;13.80;84.88;101673.13;5069146;28;20178;-74
2022/07/08 06:09:18;;;;;;;19.27;0.63;;;;;;;13.81;84.44;101674.75;5070199;28;20205;-73
2022/07/08 06:11:43;;;;;;;0.10;0.10;;;;;;;13.81;83.72;101672.00;5070670;28;20175;-73
2022/07/08 06:14:09;;;;;;;0.10;0.10;;;;;;;13.84;83.51;101674.16;5070444;28;20650;-73
2022/07/08 06:16:34;;;;;;;7.30;1.13;;;;;;;13.84;83.17;101685.13;5069939;28;20298;-73
2022/07/08 06:18:59;;;;;;;3.27;0.20;;;;;;;13.85;83.39;101678.53;5069990;28;20178;-73
2022/07/08 06:21:25;;;;;;;0.10;0.10;;;;;;;13.84;82.44;101677.72;5070559;28;20231;-73
2022/07/08 06:23:50;;;;;;;0.80;0.43;;;;;;;13.91;82.94;101682.81;5070350;28;20213;-73
2022/07/08 06:26:17;;;;;;;1.67;0.53;;;;;;;13.88;81.65;101695.22;5070416;28;20178;-74
2022/07/08 06:28:43;;;;;;;0.00;0.00;;;;;;;13.92;81.85;101696.25;5069758;28;20170;-72
2022/07/08 06:31:08;;;;;;;0.00;0.00;;;;;;;13.97;82.92;101690.66;5068947;28;20174;-73
2022/07/08 06:33:33;;;;;;;3.03;1.03;;;;;;;14.01;82.17;101701.84;5070391;28;20204;-73
2022/07/08 06:35:59;;;;;;;1.40;0.60;;;;;;;14.06;81.80;101704.50;5070350;28;20622;-73
2022/07/08 06:38:24;;;;;;;1.20;0.47;;;;;;;14.08;81.28;101696.78;5069601;28;20175;-73
2022/07/08 06:40:49;;;;;;;3.63;0.47;;;;;;;14.11;80.86;101698.91;5070125;28;20529;-73
2022/07/08 06:43:15;;;;;;;1.70;0.80;;;;;;;14.13;80.13;101693.91;5065984;28;20285;-73
2022/07/08 06:45:40;;;;;;;1.73;1.30;;;;;;;14.18;80.38;101707.59;5069918;28;20217;-72
2022/07/08 06:48:05;;;;;;;0.50;0.40;;;;;;;14.23;79.73;101707.47;5069469;28;20171;-73
2022/07/08 06:50:31;;;;;;;1.50;0.63;;;;;;;14.23;79.13;101707.47;5069979;28;20250;-73
2022/07/08 06:52:57;;;;;;;0.13;0.13;;;;;;;14.32;79.54;101702.09;5068938;28;20273;-73
2022/07/08 06:55:22;;;;;;;13.03;0.50;;;;;;;14.39;79.77;101707.97;5069935;28;20673;-73
2022/07/08 06:57:48;;;;;;;0.10;0.10;;;;;;;14.42;79.32;101701.88;5069659;28;20603;-73
2022/07/08 07:00:14;;;;;;;0.97;0.97;;;;;;;14.54;79.86;101710.44;5065942;28;20707;-72
2022/07/08 07:02:39;;;;;;;0.40;0.40;;;;;;;14.64;78.61;101706.69;5069832;28;20695;-72
2022/07/08 07:05:06;;;;;;;0.53;0.50;;;;;;;14.62;77.41;101714.44;5068619;28;20236;-73
2022/07/08 07:07:32;;;;;;;3.47;1.43;;;;;;;14.62;77.81;101714.44;5069843;28;20178;-72
2022/07/08 07:09:57;;;;;;;5.73;0.80;;;;;;;14.76;77.74;101708.91;5069975;28;20220;-72
2022/07/08 07:12:22;;;;;;;0.20;0.20;;;;;;;14.74;76.50;101702.88;5070263;28;20240;-73
2022/07/08 07:14:48;;;;;;;3.10;2.67;;;;;;;14.80;76.74;101701.66;5070119;28;20193;-72
2022/07/08 07:17:21;;;;;;;3.27;0.77;;;;;;;14.89;75.78;101710.78;5070103;28;20662;-73
2022/07/08 07:19:47;;;;;;;0.00;0.00;;;;;;;14.94;75.14;101712.63;5073671;28;20224;-73
2022/07/08 07:22:13;;;;;;;0.00;0.00;;;;;;;15.07;75.02;101722.78;5073920;28;20174;-72
2022/07/08 07:24:39;;;;;;;1.50;0.63;;;;;;;14.96;73.86;101716.69;5073739;28;20518;-72
2022/07/08 07:27:05;;;;;;;1.70;1.17;;;;;;;14.92;72.55;101725.91;5073846;28;20228;-73
2022/07/08 07:29:30;;;;;;;1.20;0.27;;;;;;;14.99;73.54;101726.28;5073422;28;20175;-72
2022/07/08 07:31:55;;;;;;;0.00;0.00;;;;;;;15.16;75.32;101729.16;5073670;28;20170;-72
2022/07/08 07:34:21;;;;;;;0.23;0.23;;;;;;;15.37;76.06;101727.59;5073615;28;20178;-72
2022/07/08 07:36:46;;;;;;;0.37;0.37;;;;;;;15.26;73.97;101730.88;5073523;28;20743;-73
2022/07/08 07:39:11;;;;;;;0.00;0.00;;;;;;;15.20;74.89;101732.16;5073229;28;20645;-73
2022/07/08 07:41:38;;;;;;;0.67;0.50;;;;;;;15.10;73.36;101728.50;5073619;28;20197;-73
2022/07/08 07:44:04;;;;;;;0.17;0.07;;;;;;;15.09;72.88;101731.56;5073618;28;20213;-72
2022/07/08 07:46:29;;;;;;;0.77;0.73;;;;;;;15.12;73.60;101731.75;5073354;28;20186;-73
2022/07/08 07:48:55;;;;;;;0.87;0.60;;;;;;;15.18;72.79;101718.66;5071596;28;20179;-72
2022/07/08 07:51:21;;;;;;;0.00;0.00;;;;;;;15.34;73.60;101722.72;5073444;28;20237;-72
2022/07/08 07:53:46;;;;;;;0.90;0.27;;;;;;;15.52;73.06;101722.84;5072474;28;20185;-73
2022/07/08 07:56:12;;;;;;;0.00;0.00;;;;;;;15.54;72.71;101731.59;5054340;28;20258;-73
2022/07/08 07:58:38;;;;;;;0.10;0.10;;;;;;;15.46;72.71;101727.63;5057009;28;20210;-73
2022/07/08 08:01:04;;;;;;;7.10;0.67;;;;;;;15.56;73.41;101741.16;5072806;28;20257;-73
2022/07/08 08:03:29;;;;;;;0.57;0.27;;;;;;;15.50;72.13;101755.38;5073033;28;20285;-73
2022/07/08 08:05:54;;;;;;;1.17;0.60;;;;;;;15.55;71.89;101749.75;5073146;28;20228;-73
2022/07/08 08:08:20;;;;;;;0.07;0.07;;;;;;;15.50;72.29;101741.63;5072574;28;20676;-73
2022/07/08 08:10:45;;;;;;;0.00;0.00;;;;;;;15.65;72.47;101741.28;5073298;28;20220;-73
2022/07/08 08:13:10;;;;;;;6.10;0.77;;;;;;;15.71;72.01;101740.81;5073034;28;20185;-74
2022/07/08 08:15:36;;;;;;;3.87;0.37;;;;;;;15.77;72.05;101750.59;5072498;28;20182;-74
2022/07/08 08:18:01;;;;;;;0.00;0.00;;;;;;;16.03;72.44;101738.88;5072852;28;20170;-73
2022/07/08 08:20:29;;;;;;;0.00;0.00;;;;;;;16.03;71.63;101752.66;5072942;28;20209;-72
2022/07/08 08:22:55;;;;;;;0.00;0.00;;;;;;;16.09;71.57;101754.19;5072785;28;20195;-72
2022/07/08 08:25:21;;;;;;;0.17;0.17;;;;;;;16.03;71.18;101761.75;5072752;28;20660;-72
2022/07/08 08:27:47;;;;;;;0.30;0.30;;;;;;;15.88;71.35;101753.88;5072705;28;20167;-72
2022/07/08 08:30:15;;;;;;;0.60;0.60;;;;;;;15.93;70.81;101752.97;5070024;28;20170;-72
2022/07/08 08:32:41;;;;;;;0.83;0.63;;;;;;;15.94;69.73;101735.28;5067950;28;20194;-72
2022/07/08 08:35:07;;;;;;;0.00;0.00;;;;;;;16.00;69.63;101745.03;5072728;28;20186;-72
2022/07/08 08:37:32;;;;;;;1.30;1.03;;;;;;;15.92;70.04;101743.06;5071888;28;20210;-72
2022/07/08 08:40:03;;;;;;;0.10;0.10;;;;;;;16.27;72.25;101736.56;5072364;28;20173;-73
2022/07/08 08:42:30;;;;;;;0.77;0.23;;;;;;;16.49;69.52;101730.19;5072438;28;20194;-73
2022/07/08 08:44:57;;;;;;;4.50;1.97;;;;;;;16.74;70.40;101730.59;5072415;28;20198;-73
2022/07/08 08:47:27;;;;;;;0.20;0.20;;;;;;;16.75;68.06;101734.97;5071672;28;20182;-74
2022/07/08 08:49:55;;;;;;;0.10;0.10;;;;;;;16.82;68.45;101741.66;5071380;28;20197;-73
2022/07/08 08:52:23;;;;;;;1.20;0.73;;;;;;;16.87;68.59;101735.97;5072022;28;20179;-73
2022/07/08 08:54:49;;;;;;;1.47;0.63;;;;;;;16.73;68.06;101727.00;5072165;28;20178;-72
2022/07/08 08:57:16;;;;;;;0.40;0.33;;;;;;;16.84;69.44;101735.81;5071840;28;20182;-74
2022/07/08 08:59:42;;;;;;;6.37;0.83;;;;;;;17.00;68.34;101736.97;5071591;28;20222;-72
2022/07/08 09:02:10;;;;;;;0.00;0.00;;;;;;;16.99;67.06;101727.06;5071890;28;20283;-73
2022/07/08 09:04:37;;;;;;;0.00;0.00;;;;;;;17.03;67.79;101716.97;5072028;28;20190;-73
2022/07/08 09:07:02;;;;;;;1.30;1.20;;;;;;;17.21;67.05;101718.63;5071820;28;20175;-73
2022/07/08 09:09:28;;;;;;;0.30;0.30;;;;;;;17.31;65.85;101720.25;5071862;28;20185;-73
2022/07/08 09:11:53;;;;;;;0.63;0.63;;;;;;;17.18;65.64;101721.22;5072096;28;20640;-74
2022/07/08 09:14:20;;;;;;;0.70;0.50;;;;;;;17.38;66.59;101728.06;5071580;28;20223;-75
2022/07/08 09:17:17;;;;;;;0.83;0.73;;;;;;;17.19;64.50;101720.06;5071322;28;20295;-74
2022/07/08 09:19:44;;;;;;;0.90;0.80;;;;;;;17.30;65.58;101720.56;5071100;28;20186;-74
2022/07/08 09:22:09;;;;;;;0.67;0.50;;;;;;;17.36;66.57;101722.03;5071888;28;20528;-74
2022/07/08 09:24:38;;;;;;;11.43;1.00;;;;;;;17.42;65.09;101727.06;5071574;28;20178;-75
2022/07/08 09:27:11;;;;;;;13.17;0.80;;;;;;;17.36;65.03;101720.09;5071256;28;20175;-72
2022/07/08 09:29:55;;;;;;;8.40;0.50;;;;;;;17.44;65.18;101723.97;5071255;28;20163;-74
2022/07/08 09:32:20;;;;;;;0.00;0.00;;;;;;;17.62;66.40;101724.75;5071130;28;20216;-73
2022/07/08 09:34:45;;;;;;;0.30;0.30;;;;;;;17.83;66.18;101717.44;5071093;28;20537;-73
2022/07/08 09:37:15;;;;;;;6.80;0.47;;;;;;;17.81;65.97;101728.84;5070580;28;20255;-73
2022/07/08 09:39:41;;;;;;;0.10;0.10;;;;;;;17.28;66.26;101720.91;5070765;28;20576;-73
2022/07/08 09:42:08;;;;;;;3.43;0.67;;;;;;;17.27;66.92;101724.00;5069330;28;20208;-73
2022/07/08 09:44:34;;;;;;;0.83;0.83;;;;;;;17.63;66.03;101732.72;5070883;28;20178;-73
2022/07/08 09:47:00;;;;;;;0.17;0.03;;;;;;;17.89;66.00;101729.94;5070583;28;20182;-73
2022/07/08 09:49:30;;;;;;;0.20;0.20;;;;;;;18.18;64.26;101718.13;5069013;28;20186;-73
2022/07/08 09:51:56;;;;;;;1.43;0.50;;;;;;;18.34;64.50;101732.22;5070652;28;20170;-73
2022/07/08 09:54:23;;;;;;;0.83;0.70;;;;;;;18.11;64.57;101731.69;5070696;28;20163;-73
2022/07/08 09:57:01;;;;;;;0.00;0.00;;;;;;;17.89;65.08;101723.59;5068999;28;20542;-73
2022/07/08 09:59:31;;;;;;;6.30;0.37;;;;;;;18.22;65.92;101723.81;5070292;28;20174;-73
2022/07/08 10:01:57;;;;;;;0.70;0.57;;;;;;;18.52;64.49;101719.13;5070428;28;20185;-73
2022/07/08 10:04:24;;;;;;;0.50;0.50;;;;;;;18.56;64.44;101715.34;5070874;28;20277;-73
2022/07/08 10:06:50;;;;;;;0.20;0.20;;;;;;;18.68;65.12;101721.03;5070247;28;20226;-73
2022/07/08 10:09:16;;;;;;;0.00;0.00;;;;;;;18.98;64.41;101721.78;5069075;28;20254;-74
2022/07/08 10:11:43;;;;;;;0.97;0.97;;;;;;;18.97;63.13;101719.38;5063711;28;20274;-73
2022/07/08 10:14:08;;;;;;;0.07;0.07;;;;;;;19.16;62.75;101716.94;5067410;28;20187;-73
2022/07/08 10:16:34;;;;;;;0.00;0.00;;;;;;;19.19;62.39;101718.19;5069304;28;20235;-73
2022/07/08 10:19:03;;;;;;;0.77;0.77;;;;;;;18.86;62.63;101718.94;5069791;28;20232;-73
2022/07/08 10:21:30;;;;;;;0.43;0.43;;;;;;;18.79;64.29;101721.41;5070462;28;20567;-73
2022/07/08 10:23:56;;;;;;;0.70;0.70;;;;;;;18.75;64.37;101716.91;5070357;28;20570;-74
2022/07/08 10:26:32;;;;;;;3.23;0.97;;;;;;;18.59;64.50;101716.63;5065784;28;20190;-73
2022/07/08 10:29:01;;;;;;;0.30;0.30;;;;;;;18.36;64.17;101716.91;5065041;28;20182;-72
2022/07/08 10:31:29;;;;;;;0.10;0.10;;;;;;;18.50;65.56;101716.69;5066966;28;20187;-73
2022/07/08 10:34:00;;;;;;;0.00;0.00;;;;;;;18.69;66.10;101719.88;5067844;28;20174;-73
2022/07/08 10:36:26;;;;;;;0.10;0.10;;;;;;;18.58;64.97;101728.84;5069539;28;20175;-73
2022/07/08 10:38:54;;;;;;;0.00;0.00;;;;;;;18.42;65.18;101734.97;5067817;28;20578;-73
2022/07/08 10:41:26;;;;;;;0.10;0.10;;;;;;;18.53;65.24;101731.81;5068453;28;20182;-72
2022/07/08 10:43:53;;;;;;;1.87;0.13;;;;;;;18.44;66.01;101724.38;5064719;28;20299;-72
2022/07/08 10:46:21;;;;;;;0.53;0.53;;;;;;;18.49;65.60;101717.00;5066967;28;21356;-72
2022/07/08 10:48:48;;;;;;;1.00;0.83;;;;;;;18.30;65.62;101714.66;5068307;28;20647;-72
2022/07/08 10:51:20;;;;;;;0.00;0.00;;;;;;;18.50;67.63;101724.16;5066401;28;20186;-72
2022/07/08 10:54:05;;;;;;;3.20;1.03;;;;;;;18.50;66.32;101711.13;5069757;28;20536;-72
2022/07/08 10:56:59;;;;;;;0.13;0.10;;;;;;;18.59;67.08;101711.91;5070617;28;20523;-73
2022/07/08 10:59:32;;;;;;;1.90;0.33;;;;;;;18.64;66.85;101720.03;5074141;28;20177;-72
2022/07/08 11:02:12;;;;;;;0.00;0.00;;;;;;;18.75;66.92;101717.72;5074355;28;20179;-72
2022/07/08 11:04:40;;;;;;;0.17;0.17;;;;;;;18.63;66.90;101720.34;5071422;28;20187;-71
2022/07/08 11:07:14;;;;;;;0.00;0.00;;;;;;;18.57;66.62;101721.69;5072493;28;20694;-72
2022/07/08 11:09:41;;;;;;;0.10;0.10;;;;;;;18.39;66.29;101730.09;5073945;28;20178;-71
2022/07/08 11:12:10;;;;;;;2.73;0.40;;;;;;;18.31;66.80;101722.63;5073139;28;20519;-72
2022/07/08 11:14:36;;;;;;;0.03;0.03;;;;;;;18.15;67.09;101729.88;5073674;28;20189;-71
2022/07/08 11:17:02;;;;;;;0.20;0.20;;;;;;;18.20;66.94;101737.97;5073246;28;20236;-72
2022/07/08 11:19:32;;;;;;;1.07;0.73;;;;;;;18.23;67.03;101726.28;5071340;28;20183;-73
2022/07/08 11:22:01;;;;;;;0.67;0.67;;;;;;;18.38;66.89;101738.75;5073364;28;20178;-72
2022/07/08 11:24:28;;;;;;;0.00;0.00;;;;;;;18.52;67.54;101735.75;5073736;28;20274;-71